Time;durP1;ratioP1;P1;durP2;ratioP2;P2;SDS_P1;SDS_P2;PMS_P1;PMS_P2;Temp;Humidity;BMP_temperature;BMP_pressure;BME280_temperature;BME280_humidity;BME280_pressure;Samples;Min_cycle;Max_cycle;Signal;HPM_P1;HPM_P2
2023/01/17 00:01:47;;;;;;;42.42;13.38;;;;;;;;;;4937951;28;20039;-46
2023/01/17 00:09:55;;;;;;;41.33;12.35;;;;;;;;;;4942174;29;20039;-47
2023/01/17 00:12:23;;;;;;;50.38;13.57;;;;;;;;;;4939233;28;20048;-49
2023/01/17 00:14:50;;;;;;;61.83;16.35;;;;;;;;;;4940872;28;20133;-48
2023/01/17 00:17:16;;;;;;;41.40;14.65;;;;;;;;;;4940404;29;20048;-46
2023/01/17 01:34:46;;;;;;;53.38;15.07;;;;;;;;;;4943195;29;20102;-49
2023/01/17 01:37:13;;;;;;;46.35;15.07;;;;;;;;;;4943728;28;20043;-46
2023/01/17 01:39:39;;;;;;;62.50;15.55;;;;;;;;;;4943514;29;20122;-46
2023/01/17 01:42:12;;;;;;;69.47;17.42;;;;;;;;;;4944941;29;20524;-46
2023/01/17 01:44:41;;;;;;;61.70;15.88;;;;;;;;;;4942743;28;20039;-46
2023/01/17 01:47:12;;;;;;;45.58;15.40;;;;;;;;;;4941952;29;20052;-48
2023/01/17 01:49:39;;;;;;;55.88;15.63;;;;;;;;;;4940806;29;20042;-47
2023/01/17 01:52:06;;;;;;;54.85;16.35;;;;;;;;;;4945918;29;20043;-51
2023/01/17 01:54:35;;;;;;;64.82;17.27;;;;;;;;;;4941414;29;20031;-49
2023/01/17 01:57:03;;;;;;;50.85;15.73;;;;;;;;;;4942335;28;20536;-46
2023/01/17 01:59:31;;;;;;;56.00;15.85;;;;;;;;;;4939732;28;20421;-46
2023/01/17 02:01:58;;;;;;;69.82;18.85;;;;;;;;;;4945301;29;20059;-46
2023/01/17 02:04:26;;;;;;;59.42;17.95;;;;;;;;;;4940530;29;20108;-45
2023/01/17 02:06:56;;;;;;;49.47;16.75;;;;;;;;;;4941125;28;20380;-46
2023/01/17 02:09:23;;;;;;;58.92;17.63;;;;;;;;;;4942565;29;20047;-48
2023/01/17 02:11:49;;;;;;;58.45;17.90;;;;;;;;;;4942651;29;20047;-47
2023/01/17 02:14:16;;;;;;;66.28;18.25;;;;;;;;;;4943051;28;20525;-47
2023/01/17 02:17:01;;;;;;;72.55;19.25;;;;;;;;;;4942581;28;20045;-46
2023/01/17 02:19:47;;;;;;;56.17;18.02;;;;;;;;;;4941796;29;20405;-46
2023/01/17 02:22:19;;;;;;;68.75;19.55;;;;;;;;;;4945914;28;20039;-46
2023/01/17 02:24:51;;;;;;;56.15;18.20;;;;;;;;;;4956696;28;20080;-46
2023/01/17 02:27:26;;;;;;;52.20;18.83;;;;;;;;;;4943418;28;20102;-50
2023/01/17 02:30:10;;;;;;;77.22;21.70;;;;;;;;;;4941537;28;20043;-50
2023/01/17 02:32:44;;;;;;;91.82;21.95;;;;;;;;;;4940261;29;20047;-47
2023/01/17 02:35:10;;;;;;;;;;;;;;;;;;4941673;29;20054;-46
2023/01/17 02:37:45;;;;;;;62.55;19.08;;;;;;;;;;4942140;28;19926;-48
2023/01/17 02:40:13;;;;;;;59.35;19.10;;;;;;;;;;4945828;29;21119;-46
2023/01/17 02:42:43;;;;;;;62.78;20.27;;;;;;;;;;4941909;29;20063;-49
2023/01/17 02:45:14;;;;;;;56.85;20.65;;;;;;;;;;4942189;28;20046;-46
2023/01/17 02:47:40;;;;;;;86.25;22.58;;;;;;;;;;4939993;28;20051;-47
2023/01/17 02:50:09;;;;;;;68.38;20.08;;;;;;;;;;4941592;28;20043;-47
2023/01/17 02:52:44;;;;;;;68.78;21.55;;;;;;;;;;4941509;29;20059;-48
2023/01/17 02:55:15;;;;;;;46.08;17.75;;;;;;;;;;4938213;28;20046;-49
2023/01/17 02:58:05;;;;;;;57.92;20.88;;;;;;;;;;4947172;28;20806;-50
2023/01/17 03:00:44;;;;;;;67.75;22.15;;;;;;;;;;4940370;29;20063;-46
2023/01/17 03:03:11;;;;;;;68.10;21.38;;;;;;;;;;4939662;28;20102;-48
2023/01/17 03:05:50;;;;;;;79.88;23.00;;;;;;;;;;4939591;28;20049;-46
2023/01/17 03:08:17;;;;;;;59.63;19.90;;;;;;;;;;4938601;29;20475;-50
2023/01/17 03:10:44;;;;;;;49.15;18.52;;;;;;;;;;4945040;28;20043;-47
2023/01/17 03:13:10;;;;;;;54.10;22.25;;;;;;;;;;4939629;28;20514;-49
2023/01/17 03:15:38;;;;;;;59.92;21.13;;;;;;;;;;4941657;29;20635;-47
2023/01/17 03:18:06;;;;;;;67.03;22.30;;;;;;;;;;4942133;29;20047;-50
2023/01/17 03:20:33;;;;;;;63.30;21.05;;;;;;;;;;4944464;28;20039;-47
2023/01/17 03:22:59;;;;;;;68.30;21.08;;;;;;;;;;4943444;29;20597;-51
2023/01/17 03:25:26;;;;;;;52.08;20.73;;;;;;;;;;4940433;28;20039;-51
2023/01/17 03:27:53;;;;;;;73.68;22.65;;;;;;;;;;4940978;28;20043;-51
2023/01/17 03:30:21;;;;;;;67.47;20.60;;;;;;;;;;4940640;28;20745;-48
2023/01/17 03:32:48;;;;;;;65.75;20.58;;;;;;;;;;4940954;28;20043;-48
2023/01/17 03:35:15;;;;;;;46.25;19.70;;;;;;;;;;4938872;29;20618;-52
2023/01/17 03:37:41;;;;;;;59.15;21.42;;;;;;;;;;4939260;28;20043;-46
2023/01/17 03:40:08;;;;;;;56.08;22.45;;;;;;;;;;4944180;28;20083;-50
2023/01/17 03:42:35;;;;;;;86.20;22.75;;;;;;;;;;4939299;29;20039;-47
2023/01/17 03:45:01;;;;;;;52.47;18.75;;;;;;;;;;4941472;28;20090;-47
2023/01/17 03:47:28;;;;;;;52.17;18.77;;;;;;;;;;4939424;28;20040;-47
2023/01/17 03:49:54;;;;;;;60.30;20.33;;;;;;;;;;4944629;28;20069;-47
2023/01/17 03:52:21;;;;;;;63.92;20.13;;;;;;;;;;4938796;29;20486;-47
2023/01/17 03:54:47;;;;;;;70.78;21.45;;;;;;;;;;4940789;28;20414;-47
2023/01/17 03:57:14;;;;;;;62.65;20.23;;;;;;;;;;4941556;28;20043;-50
2023/01/17 03:59:41;;;;;;;69.05;20.73;;;;;;;;;;4939568;29;20036;-46
2023/01/17 04:02:07;;;;;;;61.00;19.67;;;;;;;;;;4943021;28;20047;-49
2023/01/17 04:04:34;;;;;;;58.38;18.67;;;;;;;;;;4940864;28;20051;-47
2023/01/17 04:07:00;;;;;;;59.60;19.52;;;;;;;;;;4943718;28;20043;-49
2023/01/17 04:09:27;;;;;;;67.60;19.25;;;;;;;;;;4944808;28;20510;-46
2023/01/17 04:11:53;;;;;;;59.47;18.83;;;;;;;;;;4955407;28;20051;-49
2023/01/17 04:14:20;;;;;;;50.65;17.98;;;;;;;;;;4943383;29;20567;-50
2023/01/17 04:16:46;;;;;;;59.80;17.90;;;;;;;;;;4942393;29;20055;-47
2023/01/17 04:19:13;;;;;;;45.35;15.40;;;;;;;;;;4946694;29;20039;-46
2023/01/17 04:21:39;;;;;;;84.68;20.05;;;;;;;;;;4945718;28;20047;-48
2023/01/17 04:24:06;;;;;;;75.93;17.42;;;;;;;;;;4945566;28;20049;-48
2023/01/17 04:26:32;;;;;;;57.88;16.63;;;;;;;;;;4940956;28;20047;-49
2023/01/17 04:28:59;;;;;;;54.25;15.75;;;;;;;;;;4946276;28;20130;-50
2023/01/17 04:31:25;;;;;;;51.50;15.40;;;;;;;;;;4942204;28;20036;-51
2023/01/17 04:33:51;;;;;;;45.45;14.23;;;;;;;;;;4942920;28;20047;-49
2023/01/17 04:36:18;;;;;;;47.67;14.65;;;;;;;;;;4945023;29;20047;-47
2023/01/17 04:38:44;;;;;;;64.25;16.42;;;;;;;;;;4943636;29;20062;-48
2023/01/17 04:41:11;;;;;;;54.05;15.85;;;;;;;;;;4943878;29;20063;-48
2023/01/17 04:43:37;;;;;;;53.30;14.43;;;;;;;;;;4945047;28;20039;-46
2023/01/17 04:46:08;;;;;;;60.03;16.13;;;;;;;;;;4943684;29;20031;-49
2023/01/17 04:48:35;;;;;;;52.20;16.27;;;;;;;;;;4943284;28;20129;-48
2023/01/17 04:51:03;;;;;;;46.08;14.73;;;;;;;;;;4943450;28;20529;-48
2023/01/17 04:53:29;;;;;;;49.65;14.25;;;;;;;;;;4943783;28;20106;-48
2023/01/17 04:55:56;;;;;;;35.42;12.63;;;;;;;;;;4941030;29;20417;-47
2023/01/17 04:58:23;;;;;;;56.00;14.13;;;;;;;;;;4945992;29;20047;-47
2023/01/17 05:00:50;;;;;;;49.38;12.63;;;;;;;;;;4942410;29;20047;-47
2023/01/17 05:03:17;;;;;;;54.97;14.55;;;;;;;;;;4942605;29;20102;-46
2023/01/17 05:05:44;;;;;;;65.30;15.10;;;;;;;;;;4942604;29;20070;-49
2023/01/17 05:08:10;;;;;;;55.25;14.27;;;;;;;;;;4944143;28;20508;-49
2023/01/17 05:10:37;;;;;;;44.20;12.70;;;;;;;;;;4941079;29;20055;-46
2023/01/17 05:13:04;;;;;;;45.40;13.40;;;;;;;;;;4941969;29;20052;-46
2023/01/17 05:15:30;;;;;;;39.97;12.05;;;;;;;;;;4943571;29;20036;-47
2023/01/17 05:17:59;;;;;;;38.33;12.98;;;;;;;;;;4943308;28;20126;-48
2023/01/17 05:20:26;;;;;;;61.30;14.23;;;;;;;;;;4946534;29;20044;-52
2023/01/17 05:22:55;;;;;;;56.45;14.05;;;;;;;;;;4943229;28;20047;-47
2023/01/17 05:25:26;;;;;;;49.63;13.48;;;;;;;;;;4943610;29;20410;-49
2023/01/17 05:27:52;;;;;;;38.88;12.02;;;;;;;;;;4946134;28;20085;-47
2023/01/17 05:30:19;;;;;;;54.72;13.93;;;;;;;;;;4941205;28;20036;-46
2023/01/17 05:32:53;;;;;;;64.30;14.45;;;;;;;;;;4940463;29;20086;-48
2023/01/17 05:35:21;;;;;;;44.78;11.98;;;;;;;;;;4941182;29;20054;-47
2023/01/17 05:37:48;;;;;;;58.90;13.68;;;;;;;;;;4945893;28;20054;-46
2023/01/17 05:40:15;;;;;;;52.78;12.18;;;;;;;;;;4941393;28;20094;-47
2023/01/17 05:42:48;;;;;;;47.10;12.38;;;;;;;;;;4944571;28;20126;-46
2023/01/17 05:45:15;;;;;;;40.28;12.10;;;;;;;;;;4948082;29;20086;-46
2023/01/17 05:47:43;;;;;;;64.22;14.57;;;;;;;;;;4950344;28;20043;-46
2023/01/17 05:50:10;;;;;;;48.95;13.10;;;;;;;;;;4950761;28;20160;-47
2023/01/17 05:52:37;;;;;;;53.55;13.68;;;;;;;;;;4943853;28;20057;-47
2023/01/17 05:55:05;;;;;;;36.72;11.20;;;;;;;;;;4942908;29;20417;-50
2023/01/17 05:57:32;;;;;;;45.50;12.80;;;;;;;;;;4941828;29;20153;-47
2023/01/17 05:59:58;;;;;;;38.55;12.65;;;;;;;;;;4943600;29;20043;-51
2023/01/17 06:02:25;;;;;;;51.55;12.75;;;;;;;;;;4941417;28;20044;-46
2023/01/17 06:04:51;;;;;;;37.50;11.95;;;;;;;;;;4942879;28;20051;-46
2023/01/17 06:07:18;;;;;;;37.63;12.43;;;;;;;;;;4942743;28;20107;-46
2023/01/17 06:09:44;;;;;;;38.40;12.52;;;;;;;;;;4942676;28;20587;-47
2023/01/17 06:12:11;;;;;;;48.70;13.57;;;;;;;;;;4937668;29;20419;-46
2023/01/17 06:14:37;;;;;;;65.43;14.73;;;;;;;;;;4940809;28;20044;-48
2023/01/17 06:17:04;;;;;;;42.65;13.15;;;;;;;;;;4949043;28;20047;-50
2023/01/17 06:19:30;;;;;;;41.15;12.95;;;;;;;;;;4944191;29;20039;-46
2023/01/17 06:21:57;;;;;;;60.90;13.90;;;;;;;;;;4940644;28;20054;-47
2023/01/17 06:24:23;;;;;;;45.83;13.13;;;;;;;;;;4945271;28;20051;-47
2023/01/17 06:26:49;;;;;;;53.03;13.75;;;;;;;;;;4942836;28;20070;-46
2023/01/17 06:29:16;;;;;;;49.60;13.95;;;;;;;;;;4941262;28;20070;-48
2023/01/17 06:31:42;;;;;;;38.45;13.75;;;;;;;;;;4943718;28;20538;-48
2023/01/17 06:34:09;;;;;;;39.55;12.73;;;;;;;;;;4944671;28;20043;-47
2023/01/17 06:36:35;;;;;;;55.60;13.88;;;;;;;;;;4941200;29;20116;-47
2023/01/17 06:39:02;;;;;;;45.50;14.05;;;;;;;;;;4943527;29;20043;-51
2023/01/17 06:41:28;;;;;;;42.47;13.75;;;;;;;;;;4941427;28;20047;-46
2023/01/17 06:43:55;;;;;;;49.75;14.48;;;;;;;;;;4953301;28;20059;-46
2023/01/17 06:46:22;;;;;;;48.05;13.32;;;;;;;;;;4941384;28;20051;-48
2023/01/17 06:48:49;;;;;;;43.17;13.45;;;;;;;;;;4941434;29;20047;-48
2023/01/17 06:51:15;;;;;;;49.58;12.95;;;;;;;;;;4941124;28;20486;-47
2023/01/17 06:53:42;;;;;;;62.92;14.32;;;;;;;;;;4940010;28;20050;-47
2023/01/17 06:56:08;;;;;;;53.30;13.82;;;;;;;;;;4944262;29;20413;-49
2023/01/17 06:58:35;;;;;;;59.03;14.18;;;;;;;;;;4940540;29;20490;-49
2023/01/17 07:01:05;;;;;;;43.70;14.13;;;;;;;;;;4939585;29;20041;-46
2023/01/17 07:03:32;;;;;;;52.88;14.25;;;;;;;;;;4945096;29;20039;-45
2023/01/17 07:06:01;;;;;;;52.35;15.02;;;;;;;;;;4941913;29;20055;-49
2023/01/17 07:08:28;;;;;;;55.25;14.80;;;;;;;;;;4941223;29;20047;-46
2023/01/17 07:10:59;;;;;;;49.10;14.35;;;;;;;;;;4939408;28;20048;-49
2023/01/17 07:13:26;;;;;;;40.67;13.50;;;;;;;;;;4939048;28;20506;-47
2023/01/17 07:15:52;;;;;;;43.50;15.25;;;;;;;;;;4946141;28;20570;-48
2023/01/17 07:18:22;;;;;;;65.20;16.85;;;;;;;;;;4943448;28;20059;-48
2023/01/17 07:20:49;;;;;;;64.35;15.35;;;;;;;;;;4940205;29;20051;-47
2023/01/17 07:23:15;;;;;;;50.40;13.93;;;;;;;;;;4941153;29;20036;-46
2023/01/17 07:25:42;;;;;;;57.15;15.15;;;;;;;;;;4943446;28;20044;-47
2023/01/17 07:28:08;;;;;;;51.35;15.73;;;;;;;;;;4938653;28;20036;-47
2023/01/17 07:30:35;;;;;;;49.40;14.07;;;;;;;;;;4940657;29;20053;-47
2023/01/17 07:33:02;;;;;;;54.15;14.80;;;;;;;;;;4938898;28;20101;-46
2023/01/17 07:35:28;;;;;;;76.10;17.92;;;;;;;;;;4955423;28;20479;-46
2023/01/17 07:37:55;;;;;;;47.63;15.98;;;;;;;;;;4940849;28;20039;-46
2023/01/17 07:40:21;;;;;;;72.50;17.50;;;;;;;;;;4938810;28;20040;-46
2023/01/17 07:42:48;;;;;;;53.85;16.83;;;;;;;;;;4944629;28;20051;-48
2023/01/17 07:45:14;;;;;;;51.92;15.95;;;;;;;;;;4940452;29;20047;-47
2023/01/17 07:47:41;;;;;;;61.47;16.38;;;;;;;;;;4940171;28;20043;-46
2023/01/17 07:50:08;;;;;;;57.47;15.30;;;;;;;;;;4939115;29;20059;-46
2023/01/17 07:52:34;;;;;;;51.88;15.07;;;;;;;;;;4940844;29;20040;-46
2023/01/17 07:55:01;;;;;;;47.45;14.18;;;;;;;;;;4942296;28;20041;-47
2023/01/17 07:57:27;;;;;;;46.55;14.43;;;;;;;;;;4941883;29;20043;-47
2023/01/17 07:59:54;;;;;;;47.33;13.13;;;;;;;;;;4940400;29;20131;-46
2023/01/17 08:02:21;;;;;;;48.25;13.15;;;;;;;;;;4939112;28;20052;-48
2023/01/17 08:04:48;;;;;;;37.80;11.73;;;;;;;;;;4942771;28;20055;-47
2023/01/17 08:07:15;;;;;;;35.35;12.13;;;;;;;;;;4938026;28;20699;-47
2023/01/17 08:09:42;;;;;;;46.25;12.88;;;;;;;;;;4941366;28;20490;-46
2023/01/17 08:12:09;;;;;;;52.65;14.13;;;;;;;;;;4938903;29;20231;-48
2023/01/17 08:14:35;;;;;;;54.08;13.07;;;;;;;;;;4944003;28;20043;-47
2023/01/17 08:17:06;;;;;;;40.60;12.82;;;;;;;;;;4940449;29;20454;-49
2023/01/17 08:19:32;;;;;;;43.05;13.23;;;;;;;;;;4938132;29;20494;-47
2023/01/17 08:21:58;;;;;;;40.15;12.30;;;;;;;;;;4944993;28;20421;-47
2023/01/17 08:24:25;;;;;;;41.65;12.63;;;;;;;;;;4940895;28;20066;-47
2023/01/17 08:26:54;;;;;;;52.63;13.98;;;;;;;;;;4939905;28;20118;-46
2023/01/17 08:29:21;;;;;;;44.58;12.65;;;;;;;;;;4940061;28;20106;-46
2023/01/17 08:31:47;;;;;;;61.50;14.35;;;;;;;;;;4939971;28;20410;-46
2023/01/17 08:34:14;;;;;;;43.00;12.27;;;;;;;;;;4939345;28;20058;-47
2023/01/17 08:36:46;;;;;;;66.88;20.42;;;;;;;;;;4938542;29;20106;-46
2023/01/17 08:39:13;;;;;;;67.28;18.55;;;;;;;;;;4940141;29;20066;-49
2023/01/17 08:41:39;;;;;;;62.00;15.00;;;;;;;;;;4937471;29;20054;-48
2023/01/17 08:44:06;;;;;;;53.80;15.20;;;;;;;;;;4942970;28;20150;-48
2023/01/17 08:46:32;;;;;;;39.30;12.07;;;;;;;;;;4938960;29;20035;-47
2023/01/17 08:49:00;;;;;;;39.35;11.70;;;;;;;;;;4941907;28;20051;-46
2023/01/17 08:51:26;;;;;;;41.20;12.25;;;;;;;;;;4947734;29;20044;-46
2023/01/17 08:53:54;;;;;;;51.17;12.65;;;;;;;;;;4944574;28;20074;-47
2023/01/17 08:56:20;;;;;;;36.47;11.93;;;;;;;;;;4942444;29;20047;-48
2023/01/17 08:58:47;;;;;;;40.92;12.25;;;;;;;;;;4944085;29;20047;-47
2023/01/17 09:01:13;;;;;;;41.85;12.52;;;;;;;;;;4947699;29;20114;-47
2023/01/17 09:03:40;;;;;;;40.20;11.75;;;;;;;;;;4942948;29;20469;-46
2023/01/17 09:06:08;;;;;;;46.83;11.85;;;;;;;;;;4959725;28;20146;-46
2023/01/17 09:08:34;;;;;;;43.42;12.73;;;;;;;;;;4944647;29;20577;-46
2023/01/17 09:11:02;;;;;;;39.33;12.23;;;;;;;;;;4945631;28;20441;-48
2023/01/17 09:13:28;;;;;;;45.92;12.75;;;;;;;;;;4948579;28;20039;-49
2023/01/17 09:15:55;;;;;;;55.13;14.10;;;;;;;;;;4943114;29;20055;-47
2023/01/17 09:18:23;;;;;;;46.78;12.60;;;;;;;;;;4943013;28;20031;-47
2023/01/17 09:20:53;;;;;;;59.75;14.63;;;;;;;;;;4942090;28;20046;-46
2023/01/17 09:23:24;;;;;;;49.28;14.10;;;;;;;;;;4944733;28;20048;-46
2023/01/17 09:25:51;;;;;;;38.80;12.20;;;;;;;;;;4943374;28;20051;-47
2023/01/17 09:28:18;;;;;;;38.75;12.00;;;;;;;;;;4941922;28;20517;-49
2023/01/17 09:30:44;;;;;;;58.33;13.52;;;;;;;;;;4949229;29;20122;-47
2023/01/17 09:33:11;;;;;;;46.42;12.27;;;;;;;;;;4942992;28;20031;-46
2023/01/17 09:35:37;;;;;;;34.78;10.63;;;;;;;;;;4951267;29;20705;-49
2023/01/17 09:38:04;;;;;;;38.03;10.68;;;;;;;;;;4941672;29;20044;-48
2023/01/17 09:40:30;;;;;;;41.53;10.55;;;;;;;;;;4946644;29;20036;-47
2023/01/17 09:43:02;;;;;;;32.50;9.43;;;;;;;;;;4945059;29;20047;-46
2023/01/17 09:45:30;;;;;;;36.92;10.88;;;;;;;;;;4943534;29;20518;-46
2023/01/17 09:47:57;;;;;;;55.10;12.23;;;;;;;;;;4942138;29;20039;-48
2023/01/17 09:50:44;;;;;;;32.92;10.15;;;;;;;;;;4948435;29;20622;-47
2023/01/17 09:53:12;;;;;;;41.90;9.85;;;;;;;;;;4891730;29;20065;-47
2023/01/17 09:55:42;;;;;;;29.08;8.52;;;;;;;;;;4891673;29;20049;-52
2023/01/17 09:58:11;;;;;;;34.67;8.85;;;;;;;;;;4891381;29;20048;-47
2023/01/17 10:00:40;;;;;;;44.55;10.93;;;;;;;;;;4890994;29;20147;-50
2023/01/17 10:03:25;;;;;;;37.42;10.50;;;;;;;;;;4889398;29;20419;-46
2023/01/17 10:06:03;;;;;;;41.53;10.38;;;;;;;;;;4885765;29;20053;-46
2023/01/17 10:08:30;;;;;;;39.35;11.45;;;;;;;;;;4892510;29;20139;-48
2023/01/17 10:11:26;;;;;;;30.42;9.88;;;;;;;;;;4890428;29;20567;-47
2023/01/17 10:13:52;;;;;;;50.05;13.45;;;;;;;;;;4827895;29;20060;-47
2023/01/17 10:16:39;;;;;;;37.25;10.75;;;;;;;;;;4825035;29;20043;-48
2023/01/17 10:19:11;;;;;;;34.03;10.82;;;;;;;;;;4831157;29;20588;-47
2023/01/17 10:21:40;;;;;;;56.10;15.75;;;;;;;;;;4827099;29;20046;-46
2023/01/17 10:24:27;;;;;;;43.15;12.32;;;;;;;;;;4827816;29;20065;-48
2023/01/17 10:26:56;;;;;;;53.50;13.15;;;;;;;;;;4824947;29;20521;-47
2023/01/17 10:29:26;;;;;;;34.08;11.38;;;;;;;;;;4832206;29;20054;-47
2023/01/17 10:31:59;;;;;;;36.70;11.90;;;;;;;;;;4872633;29;20053;-46
2023/01/17 10:34:33;;;;;;;53.00;12.73;;;;;;;;;;4869259;29;20116;-46
2023/01/17 10:37:18;;;;;;;38.80;10.70;;;;;;;;;;4872518;29;20049;-46
2023/01/17 10:39:46;;;;;;;42.10;11.20;;;;;;;;;;4870018;29;20049;-46
2023/01/17 10:42:20;;;;;;;41.67;10.68;;;;;;;;;;4872739;29;20587;-46
2023/01/17 10:45:06;;;;;;;50.08;12.07;;;;;;;;;;4872410;29;20064;-47
2023/01/17 10:47:35;;;;;;;54.65;12.60;;;;;;;;;;4873009;29;20137;-47
2023/01/17 10:50:03;;;;;;;45.30;11.68;;;;;;;;;;4897463;29;20062;-47
2023/01/17 10:52:42;;;;;;;39.20;11.30;;;;;;;;;;4941838;29;20048;-46
2023/01/17 10:55:20;;;;;;;60.53;18.15;;;;;;;;;;4940013;28;20039;-47
2023/01/17 10:57:48;;;;;;;70.82;27.73;;;;;;;;;;4943109;28;20039;-47
2023/01/17 11:00:21;;;;;;;45.85;17.02;;;;;;;;;;4941911;28;20043;-48
2023/01/17 11:02:49;;;;;;;;;;;;;;;;;;4941457;28;20796;-47
2023/01/17 11:05:23;;;;;;;28.70;10.77;;;;;;;;;;4940728;29;19922;-46
2023/01/17 11:07:56;;;;;;;39.40;11.38;;;;;;;;;;4941787;28;20102;-46
2023/01/17 11:10:40;;;;;;;43.58;10.98;;;;;;;;;;4943924;28;20422;-46
2023/01/17 11:13:19;;;;;;;42.00;11.82;;;;;;;;;;4940323;28;20122;-46
2023/01/17 11:15:49;;;;;;;53.53;12.27;;;;;;;;;;4939541;29;20071;-51
2023/01/17 11:18:20;;;;;;;40.47;10.77;;;;;;;;;;4942814;29;20771;-47
2023/01/17 11:20:47;;;;;;;41.40;12.43;;;;;;;;;;4941724;28;20040;-47
2023/01/17 11:23:28;;;;;;;31.00;10.27;;;;;;;;;;4940041;28;20053;-48
2023/01/17 11:25:56;;;;;;;33.80;10.32;;;;;;;;;;4939094;29;20043;-46
2023/01/17 11:28:29;;;;;;;50.65;11.68;;;;;;;;;;4946259;28;20047;-46
2023/01/17 11:30:57;;;;;;;40.53;10.93;;;;;;;;;;4942719;29;20463;-47
2023/01/17 11:33:29;;;;;;;46.40;11.27;;;;;;;;;;4941389;29;20340;-47
2023/01/17 11:35:57;;;;;;;59.53;13.40;;;;;;;;;;4940919;28;20627;-47
2023/01/17 11:38:23;;;;;;;42.80;10.77;;;;;;;;;;4940881;28;20046;-47
2023/01/17 11:40:52;;;;;;;43.60;11.48;;;;;;;;;;4941876;28;20061;-46
2023/01/17 11:43:27;;;;;;;44.53;11.50;;;;;;;;;;4939468;28;20048;-46
2023/01/17 11:46:05;;;;;;;45.20;11.45;;;;;;;;;;4940114;28;20071;-47
2023/01/17 11:48:36;;;;;;;47.33;11.18;;;;;;;;;;4941052;28;20039;-47
2023/01/17 11:51:09;;;;;;;48.30;12.23;;;;;;;;;;4940865;29;20058;-50
2023/01/17 11:53:37;;;;;;;40.20;10.82;;;;;;;;;;4940564;29;20059;-49
2023/01/17 11:56:10;;;;;;;39.92;11.15;;;;;;;;;;4938021;28;20039;-50
2023/01/17 11:58:40;;;;;;;44.33;11.43;;;;;;;;;;4940730;28;20058;-46
2023/01/17 12:01:06;;;;;;;39.15;10.82;;;;;;;;;;4940604;29;20094;-46
2023/01/17 12:03:48;;;;;;;44.42;11.40;;;;;;;;;;4940421;28;20039;-46
2023/01/17 12:06:21;;;;;;;33.97;10.05;;;;;;;;;;4942211;29;20118;-48
2023/01/17 12:09:00;;;;;;;48.00;11.93;;;;;;;;;;4944246;28;20066;-47
2023/01/17 12:11:29;;;;;;;40.90;11.15;;;;;;;;;;4941381;28;20395;-48
2023/01/17 12:14:01;;;;;;;34.22;9.93;;;;;;;;;;4940054;28;20039;-47
2023/01/17 12:16:34;;;;;;;39.55;10.88;;;;;;;;;;4940933;28;20498;-47
2023/01/17 12:19:04;;;;;;;41.72;11.65;;;;;;;;;;4942368;28;20051;-47
2023/01/17 12:21:45;;;;;;;43.67;11.27;;;;;;;;;;4941583;28;20151;-51
2023/01/17 12:24:40;;;;;;;44.60;11.20;;;;;;;;;;4947943;28;20054;-49
2023/01/17 12:27:09;;;;;;;60.10;12.63;;;;;;;;;;4959772;28;20051;-50
2023/01/17 12:29:46;;;;;;;41.50;10.88;;;;;;;;;;4945568;29;20048;-49
2023/01/17 12:32:16;;;;;;;45.45;11.73;;;;;;;;;;4942714;28;20048;-46
2023/01/17 12:34:46;;;;;;;51.08;14.30;;;;;;;;;;4944157;28;20054;-47
2023/01/17 12:37:25;;;;;;;38.80;10.93;;;;;;;;;;4947523;28;20039;-47
2023/01/17 12:39:53;;;;;;;40.25;11.65;;;;;;;;;;4949076;29;20099;-48
2023/01/17 12:42:23;;;;;;;44.28;11.15;;;;;;;;;;4944291;29;20047;-49
2023/01/17 12:44:59;;;;;;;47.50;11.93;;;;;;;;;;4941859;29;20039;-46
2023/01/17 12:47:25;;;;;;;47.33;11.25;;;;;;;;;;4945279;29;20114;-47
2023/01/17 12:49:56;;;;;;;37.25;10.27;;;;;;;;;;4944962;29;20055;-46
2023/01/17 12:52:41;;;;;;;35.80;9.95;;;;;;;;;;4942114;29;20063;-47
2023/01/17 12:55:14;;;;;;;44.80;10.73;;;;;;;;;;4944112;28;20039;-48
2023/01/17 12:57:44;;;;;;;34.33;10.27;;;;;;;;;;4944136;28;20039;-45
2023/01/17 13:00:11;;;;;;;66.80;13.73;;;;;;;;;;4946238;28;20457;-47
2023/01/17 13:02:58;;;;;;;64.07;13.27;;;;;;;;;;4943061;28;20138;-47
2023/01/17 13:05:25;;;;;;;33.63;9.82;;;;;;;;;;4945644;28;20143;-50
2023/01/17 13:07:57;;;;;;;50.53;11.70;;;;;;;;;;4949474;28;20065;-49
2023/01/17 13:10:27;;;;;;;37.80;11.15;;;;;;;;;;4940964;29;20096;-47
2023/01/17 13:12:57;;;;;;;35.20;11.18;;;;;;;;;;4942684;28;20052;-46
2023/01/17 13:15:27;;;;;;;34.67;11.20;;;;;;;;;;4945914;29;20118;-48
2023/01/17 13:18:08;;;;;;;62.92;13.63;;;;;;;;;;4943591;28;20051;-47
2023/01/17 13:20:55;;;;;;;58.40;13.65;;;;;;;;;;4943319;29;20047;-48
2023/01/17 13:23:29;;;;;;;44.42;11.85;;;;;;;;;;4943339;29;20054;-46
2023/01/17 13:25:57;;;;;;;33.05;10.98;;;;;;;;;;4947737;28;20130;-48
2023/01/17 13:28:34;;;;;;;41.22;11.38;;;;;;;;;;4941942;28;20550;-47
2023/01/17 13:31:12;;;;;;;46.83;10.98;;;;;;;;;;4942962;29;20494;-46
2023/01/17 13:34:02;;;;;;;51.38;12.00;;;;;;;;;;4942412;28;20047;-48
2023/01/17 13:36:38;;;;;;;43.22;10.98;;;;;;;;;;4939309;29;20055;-49
2023/01/17 13:39:07;;;;;;;44.92;12.02;;;;;;;;;;4943604;29;20055;-48
2023/01/17 13:41:43;;;;;;;50.42;11.88;;;;;;;;;;4942901;28;20042;-48
2023/01/17 13:44:23;;;;;;;40.15;10.18;;;;;;;;;;4941466;28;20102;-48
2023/01/17 13:46:53;;;;;;;36.78;11.48;;;;;;;;;;4944524;29;20075;-47
2023/01/17 13:49:22;;;;;;;28.25;11.55;;;;;;;;;;4940562;29;20525;-46
2023/01/17 13:52:11;;;;;;;40.50;12.65;;;;;;;;;;4943097;29;20043;-46
2023/01/17 13:54:50;;;;;;;45.15;12.95;;;;;;;;;;4946536;29;20058;-47
2023/01/17 13:57:27;;;;;;;41.95;12.88;;;;;;;;;;4944264;29;20098;-46
2023/01/17 13:59:56;;;;;;;50.47;12.55;;;;;;;;;;4941804;28;20039;-47
2023/01/17 14:02:31;;;;;;;52.80;12.25;;;;;;;;;;4939447;29;20046;-47
2023/01/17 14:05:06;;;;;;;35.40;10.70;;;;;;;;;;4948214;28;20101;-46
2023/01/17 14:07:34;;;;;;;42.05;11.27;;;;;;;;;;4947422;28;20035;-48
2023/01/17 14:10:14;;;;;;;45.55;12.32;;;;;;;;;;4948654;28;20058;-46
2023/01/17 14:12:40;;;;;;;47.20;13.48;;;;;;;;;;4943122;29;20066;-47
2023/01/17 14:15:17;;;;;;;44.15;12.20;;;;;;;;;;4943435;29;20035;-47
2023/01/17 14:17:49;;;;;;;43.33;12.45;;;;;;;;;;4941922;29;20125;-46
2023/01/17 14:20:16;;;;;;;45.10;12.35;;;;;;;;;;4943113;28;20046;-46
2023/01/17 14:22:48;;;;;;;33.05;11.05;;;;;;;;;;4943771;28;20043;-46
2023/01/17 14:25:19;;;;;;;48.67;12.38;;;;;;;;;;4944810;29;20039;-47
2023/01/17 14:27:54;;;;;;;41.92;12.10;;;;;;;;;;4941264;28;20047;-47
2023/01/17 14:30:26;;;;;;;47.17;13.32;;;;;;;;;;4942541;29;20050;-48
2023/01/17 14:32:55;;;;;;;58.58;15.02;;;;;;;;;;4939734;28;20455;-47
2023/01/17 14:35:22;;;;;;;44.60;14.52;;;;;;;;;;4944667;28;21011;-46
2023/01/17 14:37:52;;;;;;;48.75;14.70;;;;;;;;;;4942434;28;20078;-46
2023/01/17 14:40:19;;;;;;;48.40;14.00;;;;;;;;;;4937892;29;20056;-45
2023/01/17 14:42:46;;;;;;;39.22;12.90;;;;;;;;;;4943546;29;20090;-49
2023/01/17 14:45:17;;;;;;;64.22;14.63;;;;;;;;;;4942310;28;20035;-47
2023/01/17 14:47:44;;;;;;;50.70;13.30;;;;;;;;;;4950137;29;20829;-46
2023/01/17 14:50:16;;;;;;;41.58;12.73;;;;;;;;;;4941572;29;20074;-46
2023/01/17 14:52:45;;;;;;;55.83;15.18;;;;;;;;;;4942073;29;20047;-49
2023/01/17 14:55:14;;;;;;;66.70;16.15;;;;;;;;;;4946803;28;20054;-47
2023/01/17 14:57:41;;;;;;;53.72;16.75;;;;;;;;;;4940938;29;20379;-47
2023/01/17 15:00:17;;;;;;;52.97;16.05;;;;;;;;;;4941495;28;20114;-47
2023/01/17 15:02:44;;;;;;;73.25;18.58;;;;;;;;;;4944435;28;20057;-47
2023/01/17 15:05:14;;;;;;;51.17;15.98;;;;;;;;;;4945649;28;20044;-47
2023/01/17 15:07:42;;;;;;;62.67;17.35;;;;;;;;;;4941709;29;20036;-46
2023/01/17 15:10:11;;;;;;;39.70;14.90;;;;;;;;;;4940066;28;20410;-47
2023/01/17 15:12:38;;;;;;;59.17;16.42;;;;;;;;;;4945199;29;20054;-47
2023/01/17 15:15:24;;;;;;;67.18;17.70;;;;;;;;;;4941718;28;20043;-46
2023/01/17 15:17:52;;;;;;;52.63;16.67;;;;;;;;;;4949105;29;20143;-46
2023/01/17 15:20:19;;;;;;;62.78;17.10;;;;;;;;;;4942148;29;20046;-47
2023/01/17 15:22:46;;;;;;;52.42;17.23;;;;;;;;;;4942580;28;20483;-46
2023/01/17 15:25:12;;;;;;;54.55;16.77;;;;;;;;;;4942219;29;20504;-46
2023/01/17 15:27:41;;;;;;;52.67;16.17;;;;;;;;;;4942520;29;20071;-46
2023/01/17 15:30:10;;;;;;;59.47;16.42;;;;;;;;;;4941787;28;20042;-47
2023/01/17 15:32:37;;;;;;;66.20;15.57;;;;;;;;;;4954319;28;20043;-46
2023/01/17 15:35:06;;;;;;;45.17;14.38;;;;;;;;;;4944439;28;20035;-46
2023/01/17 15:37:33;;;;;;;50.05;14.85;;;;;;;;;;4939037;29;20461;-49
2023/01/17 15:40:02;;;;;;;43.20;12.75;;;;;;;;;;4939835;28;20054;-50
2023/01/17 15:42:30;;;;;;;74.60;15.98;;;;;;;;;;4943155;29;20079;-49
2023/01/17 15:44:58;;;;;;;64.38;17.65;;;;;;;;;;4942986;29;20047;-46
2023/01/17 15:47:31;;;;;;;84.35;21.27;;;;;;;;;;4943102;28;20043;-47
2023/01/17 15:49:59;;;;;;;68.28;21.42;;;;;;;;;;4939183;29;20043;-45
2023/01/17 15:52:26;;;;;;;74.93;23.55;;;;;;;;;;4944712;29;20457;-46
2023/01/17 15:54:57;;;;;;;63.67;20.65;;;;;;;;;;4941198;28;20054;-46